Time;durP1;ratioP1;P1;durP2;ratioP2;P2;SDS_P1;SDS_P2;PMS_P1;PMS_P2;Temp;Humidity;BMP_temperature;BMP_pressure;BME280_temperature;BME280_humidity;BME280_pressure;Samples;Min_cycle;Max_cycle;Signal;HPM_P1;HPM_P2
2022/01/06 00:01:20;;;;;;;17.40;7.87;;;3.60;99.90;;;;;;5056516;28;20718;-65
2022/01/06 00:03:46;;;;;;;17.97;7.63;;;3.60;99.90;;;;;;5056901;28;20199;-65
2022/01/06 00:06:12;;;;;;;16.90;7.60;;;3.60;99.90;;;;;;5055103;28;20273;-65
2022/01/06 00:08:39;;;;;;;17.03;7.03;;;3.50;99.90;;;;;;5054920;28;20275;-65
2022/01/06 00:11:07;;;;;;;19.77;7.27;;;3.50;99.90;;;;;;5056542;28;20171;-65
2022/01/06 00:13:58;;;;;;;17.33;8.03;;;3.50;99.90;;;;;;5056175;28;20706;-65
2022/01/06 00:24:13;;;;;;;17.90;7.70;;;3.40;99.90;;;;;;5055153;28;20260;-65
2022/01/06 00:26:39;;;;;;;13.27;6.73;;;3.40;99.90;;;;;;5055782;28;20198;-65
2022/01/06 00:29:05;;;;;;;20.40;7.70;;;3.40;99.90;;;;;;5055745;28;20281;-65
2022/01/06 00:31:32;;;;;;;19.43;7.70;;;3.30;99.90;;;;;;5056199;28;20229;-65
2022/01/06 00:33:58;;;;;;;16.97;7.93;;;3.30;99.90;;;;;;5056100;28;20231;-68
2022/01/06 00:36:24;;;;;;;21.87;8.20;;;3.30;99.90;;;;;;5056125;28;20171;-68
2022/01/06 00:38:50;;;;;;;14.33;7.07;;;3.30;99.90;;;;;;5054448;28;20654;-68
2022/01/06 00:41:16;;;;;;;15.70;8.20;;;3.30;99.90;;;;;;5055623;28;20179;-69
2022/01/06 00:43:41;;;;;;;19.37;7.63;;;3.30;99.90;;;;;;5055581;28;20667;-68
2022/01/06 00:46:07;;;;;;;14.97;7.00;;;3.40;99.90;;;;;;5055769;28;20186;-68
2022/01/06 00:48:33;;;;;;;21.20;7.43;;;3.40;99.90;;;;;;5055354;28;20228;-68
2022/01/06 00:50:59;;;;;;;14.67;7.40;;;3.40;99.90;;;;;;5055449;28;20174;-68
2022/01/06 00:53:25;;;;;;;19.17;7.60;;;3.40;99.90;;;;;;5055443;28;20224;-68
2022/01/06 00:55:50;;;;;;;21.37;7.77;;;3.40;99.90;;;;;;5054041;28;20689;-68
2022/01/06 00:58:16;;;;;;;18.43;7.37;;;3.40;99.90;;;;;;5054077;28;20187;-68
2022/01/06 01:00:42;;;;;;;21.20;8.43;;;3.50;99.90;;;;;;5055211;28;20174;-68
2022/01/06 01:03:15;;;;;;;22.40;7.60;;;3.40;99.90;;;;;;5055035;28;20198;-68
2022/01/06 01:05:42;;;;;;;16.10;7.93;;;3.40;99.90;;;;;;5055399;28;20193;-68
2022/01/06 01:08:08;;;;;;;17.63;8.57;;;3.40;99.90;;;;;;5053939;28;20243;-68
2022/01/06 01:10:35;;;;;;;23.03;8.13;;;3.40;99.90;;;;;;5055028;28;20202;-68
2022/01/06 01:13:01;;;;;;;22.13;7.30;;;3.40;99.90;;;;;;5054944;28;20333;-68
2022/01/06 01:15:28;;;;;;;13.97;7.60;;;3.40;99.90;;;;;;5053753;28;20183;-68
2022/01/06 01:17:54;;;;;;;18.17;7.57;;;3.40;99.90;;;;;;5054841;28;20174;-68
2022/01/06 01:20:21;;;;;;;13.43;7.47;;;3.40;99.90;;;;;;5053663;28;20187;-68
2022/01/06 01:22:47;;;;;;;19.70;7.93;;;3.40;99.90;;;;;;5054845;28;20660;-68
2022/01/06 01:25:14;;;;;;;24.60;8.30;;;3.40;99.90;;;;;;5054992;28;20177;-68
2022/01/06 01:27:42;;;;;;;31.00;8.70;;;3.40;99.90;;;;;;5054630;28;20671;-68
2022/01/06 01:30:12;;;;;;;20.93;8.27;;;3.50;99.90;;;;;;5053433;28;20211;-68
2022/01/06 01:32:40;;;;;;;14.30;7.47;;;3.50;99.90;;;;;;5053510;28;20218;-68
2022/01/06 01:35:09;;;;;;;19.87;8.03;;;3.40;99.90;;;;;;5054532;28;20615;-68
2022/01/06 01:37:36;;;;;;;17.50;8.33;;;3.40;99.90;;;;;;5054370;28;20516;-68
2022/01/06 01:40:03;;;;;;;21.57;8.17;;;3.40;99.90;;;;;;5054754;28;20185;-68
2022/01/06 01:42:29;;;;;;;18.60;8.40;;;3.40;99.90;;;;;;5056580;28;20206;-68
2022/01/06 01:44:55;;;;;;;17.87;7.93;;;3.40;99.90;;;;;;5055495;28;20228;-67
2022/01/06 01:47:44;;;;;;;18.90;7.77;;;3.40;99.90;;;;;;5056863;28;20642;-68
2022/01/06 01:50:16;;;;;;;22.77;8.03;;;3.40;99.90;;;;;;5055154;28;20218;-68
2022/01/06 01:52:47;;;;;;;14.97;7.20;;;3.40;99.90;;;;;;5054760;28;20281;-68
2022/01/06 01:55:20;;;;;;;20.47;8.40;;;3.40;99.90;;;;;;5054933;28;20175;-68
2022/01/06 01:57:47;;;;;;;23.77;7.87;;;3.40;99.90;;;;;;5054469;28;20174;-68
2022/01/06 02:00:14;;;;;;;18.93;8.27;;;3.40;99.90;;;;;;5052854;28;20726;-68
2022/01/06 02:02:41;;;;;;;18.03;8.77;;;3.40;99.90;;;;;;5054216;28;20281;-71
2022/01/06 02:05:07;;;;;;;18.53;7.90;;;3.40;99.90;;;;;;5054087;28;20175;-68
2022/01/06 02:07:34;;;;;;;23.70;8.20;;;3.40;99.90;;;;;;5052932;28;20677;-68
2022/01/06 02:10:03;;;;;;;15.33;7.77;;;3.40;99.90;;;;;;5053912;28;20198;-69
2022/01/06 02:12:32;;;;;;;21.40;7.90;;;3.30;99.90;;;;;;5052776;28;20678;-68
2022/01/06 02:14:59;;;;;;;20.20;7.73;;;3.30;99.90;;;;;;5052724;28;20640;-68
2022/01/06 02:17:24;;;;;;;16.07;6.83;;;3.30;99.90;;;;;;5052608;28;20175;-68
2022/01/06 02:20:00;;;;;;;18.30;8.07;;;3.20;99.90;;;;;;5053915;28;20548;-68
2022/01/06 02:22:27;;;;;;;28.20;8.20;;;3.20;99.90;;;;;;5053644;28;20539;-68
2022/01/06 02:24:53;;;;;;;18.50;7.77;;;3.20;99.90;;;;;;5053728;28;20179;-68
2022/01/06 02:27:20;;;;;;;19.27;8.03;;;3.20;99.90;;;;;;5053673;28;20624;-68
2022/01/06 02:29:50;;;;;;;22.07;7.97;;;3.20;99.90;;;;;;5053573;28;20576;-68
2022/01/06 02:32:18;;;;;;;17.07;7.37;;;3.20;99.90;;;;;;5053835;28;20179;-69
2022/01/06 02:34:44;;;;;;;19.80;7.50;;;3.10;99.90;;;;;;5053821;28;20178;-68
2022/01/06 02:37:12;;;;;;;24.03;8.80;;;3.10;99.90;;;;;;5052275;28;20555;-68
2022/01/06 02:39:38;;;;;;;16.53;8.13;;;3.10;99.90;;;;;;5053435;28;20174;-68
2022/01/06 02:42:04;;;;;;;16.53;7.23;;;3.00;99.90;;;;;;5052107;28;20550;-68
2022/01/06 02:44:30;;;;;;;22.30;8.07;;;3.00;99.90;;;;;;5053967;28;20224;-68
2022/01/06 02:46:56;;;;;;;22.33;7.50;;;3.00;99.90;;;;;;5053650;28;20186;-68
2022/01/06 02:49:22;;;;;;;26.23;7.60;;;3.00;99.90;;;;;;5051580;28;20210;-68
2022/01/06 02:51:47;;;;;;;20.63;7.77;;;3.00;99.90;;;;;;5052157;28;20189;-68
2022/01/06 02:54:14;;;;;;;24.97;8.17;;;3.00;99.90;;;;;;5051961;28;20237;-69
2022/01/06 02:56:42;;;;;;;16.47;7.80;;;3.00;99.90;;;;;;5053273;28;20546;-69
2022/01/06 02:59:09;;;;;;;19.87;7.57;;;3.00;99.90;;;;;;5053729;28;20235;-68
2022/01/06 03:01:42;;;;;;;22.57;8.10;;;3.00;99.90;;;;;;5053776;28;20215;-69
2022/01/06 03:04:09;;;;;;;18.83;7.33;;;3.00;99.90;;;;;;5054090;28;20225;-69
2022/01/06 03:06:35;;;;;;;18.50;7.80;;;3.00;99.90;;;;;;5052097;28;20183;-68
2022/01/06 03:09:02;;;;;;;13.77;7.27;;;3.00;99.90;;;;;;5053258;28;20202;-68
2022/01/06 03:11:28;;;;;;;20.07;7.93;;;3.00;99.90;;;;;;5053527;28;20163;-68
2022/01/06 03:13:54;;;;;;;23.33;8.07;;;3.00;99.90;;;;;;5052123;28;20264;-68
2022/01/06 03:16:20;;;;;;;10.57;7.30;;;3.00;99.90;;;;;;5053317;28;20194;-68
2022/01/06 03:18:46;;;;;;;20.17;8.40;;;3.00;99.90;;;;;;5053190;28;20178;-68
2022/01/06 03:21:12;;;;;;;14.10;7.17;;;3.00;99.90;;;;;;5051829;28;20614;-68
2022/01/06 03:23:38;;;;;;;19.33;7.97;;;3.00;99.90;;;;;;5053004;28;20709;-68
2022/01/06 03:26:04;;;;;;;16.00;7.40;;;3.00;99.90;;;;;;5051666;28;20198;-68
2022/01/06 03:28:30;;;;;;;21.40;7.63;;;3.00;99.90;;;;;;5053256;28;20218;-69
2022/01/06 03:30:56;;;;;;;18.17;7.33;;;2.90;99.90;;;;;;5051856;28;20643;-68
2022/01/06 03:33:22;;;;;;;16.93;7.30;;;2.90;99.90;;;;;;5053316;28;20218;-68
2022/01/06 03:35:47;;;;;;;17.70;8.50;;;2.90;99.90;;;;;;5053574;28;20190;-68
2022/01/06 03:38:13;;;;;;;21.63;8.20;;;2.90;99.90;;;;;;5053315;28;20170;-68
2022/01/06 03:40:40;;;;;;;24.80;9.37;;;2.90;99.90;;;;;;5053083;28;20185;-68
2022/01/06 03:43:07;;;;;;;21.40;8.30;;;2.90;99.90;;;;;;5051502;28;20236;-69
2022/01/06 03:45:33;;;;;;;22.43;7.80;;;2.90;99.90;;;;;;5051529;28;20183;-68
2022/01/06 03:47:59;;;;;;;25.47;8.23;;;2.90;99.90;;;;;;5053302;28;20189;-68
2022/01/06 03:50:25;;;;;;;21.77;7.93;;;2.90;99.90;;;;;;5051694;28;20202;-68
2022/01/06 03:52:51;;;;;;;18.77;7.40;;;2.90;99.90;;;;;;5052915;28;20199;-69
2022/01/06 03:55:18;;;;;;;19.10;8.40;;;2.90;99.90;;;;;;5053544;28;20338;-68
2022/01/06 03:57:45;;;;;;;19.80;8.03;;;2.90;99.90;;;;;;5052704;28;20250;-68
2022/01/06 04:00:15;;;;;;;15.17;7.43;;;2.80;99.90;;;;;;5055962;28;20193;-68
2022/01/06 04:02:42;;;;;;;23.43;9.10;;;2.70;99.90;;;;;;5056454;28;20206;-70
2022/01/06 04:05:09;;;;;;;16.13;8.20;;;2.80;99.90;;;;;;5056316;28;20181;-68
2022/01/06 04:07:35;;;;;;;19.60;8.60;;;2.70;99.90;;;;;;5056264;28;20171;-68
2022/01/06 04:10:02;;;;;;;18.37;8.47;;;2.70;99.90;;;;;;5056202;28;20194;-68
2022/01/06 04:12:28;;;;;;;16.33;8.40;;;2.70;99.90;;;;;;5056057;28;20232;-68
2022/01/06 04:14:53;;;;;;;20.47;8.13;;;2.70;99.90;;;;;;5056411;28;20171;-68
2022/01/06 04:17:19;;;;;;;22.70;8.40;;;2.70;99.90;;;;;;5054967;28;20182;-69
2022/01/06 04:19:45;;;;;;;22.03;8.10;;;2.70;99.90;;;;;;5054835;28;20327;-69
2022/01/06 04:22:11;;;;;;;19.53;7.70;;;2.70;99.90;;;;;;5056218;28;20183;-68
2022/01/06 04:24:36;;;;;;;20.43;8.57;;;2.60;99.90;;;;;;5054710;28;20265;-69
2022/01/06 04:27:03;;;;;;;16.77;7.80;;;2.70;99.90;;;;;;5056075;28;20659;-68
2022/01/06 04:29:28;;;;;;;19.27;8.07;;;2.70;99.90;;;;;;5055182;28;20766;-69
2022/01/06 04:31:54;;;;;;;20.80;7.93;;;2.70;99.90;;;;;;5056225;28;20205;-69
2022/01/06 04:34:20;;;;;;;21.00;8.20;;;2.70;99.90;;;;;;5056113;28;20198;-68
2022/01/06 04:36:51;;;;;;;21.40;9.10;;;2.70;99.90;;;;;;5054673;28;20174;-68
2022/01/06 04:39:17;;;;;;;19.47;8.70;;;2.70;99.90;;;;;;5054676;28;20174;-66
2022/01/06 04:41:43;;;;;;;23.53;8.50;;;2.70;99.90;;;;;;5054626;28;20170;-65
2022/01/06 04:44:09;;;;;;;22.13;7.83;;;2.70;99.90;;;;;;5056146;28;20680;-65
2022/01/06 04:46:35;;;;;;;26.07;7.93;;;2.70;99.90;;;;;;5055728;28;20182;-65
2022/01/06 04:49:00;;;;;;;18.53;7.50;;;2.60;99.90;;;;;;5055685;28;20202;-66
2022/01/06 04:51:26;;;;;;;19.97;8.03;;;2.60;99.90;;;;;;5055467;28;20541;-66
2022/01/06 04:53:52;;;;;;;18.57;8.30;;;2.60;99.90;;;;;;5054046;28;20195;-66
2022/01/06 04:56:18;;;;;;;11.80;7.30;;;2.50;99.90;;;;;;5055386;28;20155;-66
2022/01/06 04:58:43;;;;;;;17.33;8.00;;;2.50;99.90;;;;;;5055404;28;20190;-66
2022/01/06 05:01:09;;;;;;;23.03;9.73;;;2.50;99.90;;;;;;5055563;28;20657;-66
2022/01/06 05:03:35;;;;;;;21.80;7.93;;;2.40;99.90;;;;;;5055243;28;20705;-66
2022/01/06 05:06:00;;;;;;;21.40;8.10;;;2.40;99.90;;;;;;5053900;28;20175;-65
2022/01/06 05:08:26;;;;;;;19.87;8.00;;;2.40;99.90;;;;;;5055350;28;20237;-66
2022/01/06 05:10:52;;;;;;;18.67;8.57;;;2.30;99.90;;;;;;5054378;28;20166;-66
2022/01/06 05:13:18;;;;;;;26.43;9.93;;;2.30;99.90;;;;;;5055097;28;20558;-66
2022/01/06 05:15:44;;;;;;;11.00;8.07;;;2.30;99.90;;;;;;5054943;28;20175;-66
2022/01/06 05:18:09;;;;;;;21.50;7.93;;;2.30;99.90;;;;;;5053741;28;20175;-66
2022/01/06 05:20:38;;;;;;;29.10;9.30;;;2.30;99.90;;;;;;5054892;28;20245;-66
2022/01/06 05:23:04;;;;;;;28.57;9.20;;;2.30;99.90;;;;;;5055511;28;20221;-66
2022/01/06 05:25:31;;;;;;;22.43;9.00;;;2.20;99.90;;;;;;5055041;28;20167;-66
2022/01/06 05:27:57;;;;;;;16.40;8.20;;;2.20;99.90;;;;;;5054919;28;20195;-66
2022/01/06 05:30:23;;;;;;;17.70;9.10;;;2.20;99.90;;;;;;5054952;28;20205;-66
2022/01/06 05:32:49;;;;;;;25.67;8.70;;;2.20;99.90;;;;;;5054968;28;20224;-65
2022/01/06 05:35:15;;;;;;;29.57;9.37;;;2.20;99.90;;;;;;5054846;28;20276;-66
2022/01/06 05:37:41;;;;;;;18.77;8.87;;;2.10;99.90;;;;;;5054613;28;20172;-65
2022/01/06 05:40:07;;;;;;;15.80;8.67;;;2.10;99.90;;;;;;5054795;28;20666;-66
2022/01/06 05:42:33;;;;;;;26.50;9.70;;;2.10;99.90;;;;;;5054490;28;20244;-66
2022/01/06 05:44:59;;;;;;;19.13;9.67;;;2.00;99.90;;;;;;5054715;28;20179;-65
2022/01/06 05:47:24;;;;;;;20.73;9.20;;;2.00;99.90;;;;;;5054513;28;20179;-66
2022/01/06 05:49:50;;;;;;;19.03;8.47;;;1.90;99.90;;;;;;5053146;28;20206;-66
2022/01/06 05:52:16;;;;;;;22.40;8.97;;;1.90;99.90;;;;;;5054132;28;20179;-66
2022/01/06 05:54:41;;;;;;;21.17;9.10;;;1.90;99.90;;;;;;5054173;28;20217;-65
2022/01/06 05:57:08;;;;;;;26.23;10.13;;;1.90;99.90;;;;;;5054075;28;20517;-65
2022/01/06 05:59:34;;;;;;;20.77;9.53;;;1.90;99.90;;;;;;5054281;28;20170;-65
2022/01/06 06:02:00;;;;;;;24.13;10.10;;;1.90;99.90;;;;;;5052661;28;20189;-65
2022/01/06 06:04:26;;;;;;;21.87;9.37;;;1.80;99.90;;;;;;5053830;28;20194;-65
2022/01/06 06:06:52;;;;;;;25.80;9.37;;;1.80;99.90;;;;;;5052562;28;20183;-65
2022/01/06 06:09:18;;;;;;;23.53;9.37;;;1.80;99.90;;;;;;5053816;28;20205;-65
2022/01/06 06:11:44;;;;;;;38.17;10.87;;;1.80;99.90;;;;;;5054037;28;20174;-65
2022/01/06 06:14:09;;;;;;;20.07;10.07;;;1.70;99.90;;;;;;5053699;28;20674;-66
2022/01/06 06:16:35;;;;;;;20.73;10.30;;;1.70;99.90;;;;;;5053726;28;20206;-65
2022/01/06 06:19:01;;;;;;;17.33;9.57;;;1.70;99.90;;;;;;5053606;28;20171;-65
2022/01/06 06:21:27;;;;;;;22.43;10.50;;;1.70;99.90;;;;;;5053606;28;20174;-66
2022/01/06 06:23:52;;;;;;;28.40;10.53;;;1.70;99.90;;;;;;5052665;28;20198;-65
2022/01/06 06:26:18;;;;;;;21.47;9.60;;;1.70;99.90;;;;;;5052164;28;20263;-66
2022/01/06 06:28:44;;;;;;;24.00;9.97;;;1.60;99.90;;;;;;5053495;28;20249;-65
2022/01/06 06:31:10;;;;;;;30.97;9.67;;;1.60;99.90;;;;;;5053531;28;20170;-65
2022/01/06 06:33:35;;;;;;;21.67;9.40;;;1.60;99.90;;;;;;5052113;28;20190;-66
2022/01/06 06:36:01;;;;;;;17.53;10.00;;;1.60;99.90;;;;;;5053680;28;20167;-65
2022/01/06 06:38:27;;;;;;;25.83;10.80;;;1.60;99.90;;;;;;5053376;28;20209;-65
2022/01/06 06:40:53;;;;;;;18.00;9.70;;;1.60;99.90;;;;;;5052080;28;20178;-66
2022/01/06 06:43:18;;;;;;;26.50;10.40;;;1.60;99.90;;;;;;5053259;28;20190;-66
2022/01/06 06:45:44;;;;;;;26.37;9.67;;;1.60;99.90;;;;;;5053319;28;20662;-65
2022/01/06 06:48:11;;;;;;;21.03;9.37;;;1.60;99.90;;;;;;5052038;28;20186;-66
2022/01/06 06:50:37;;;;;;;24.40;9.57;;;1.60;99.90;;;;;;5051927;28;20209;-65
2022/01/06 06:53:03;;;;;;;30.50;9.43;;;1.60;99.90;;;;;;5053071;28;20194;-65
2022/01/06 06:55:30;;;;;;;22.70;10.73;;;1.60;99.90;;;;;;5051945;28;20179;-65
2022/01/06 06:57:55;;;;;;;26.20;10.13;;;1.60;99.90;;;;;;5053442;28;20170;-65
2022/01/06 07:00:21;;;;;;;18.53;9.87;;;1.60;99.90;;;;;;5051889;28;20174;-65
2022/01/06 07:02:47;;;;;;;18.30;9.50;;;1.60;99.90;;;;;;5051829;28;20220;-66
2022/01/06 07:05:15;;;;;;;24.47;10.93;;;1.60;99.90;;;;;;5053432;28;20192;-65
2022/01/06 07:07:41;;;;;;;17.03;10.03;;;1.60;99.90;;;;;;5053058;28;20602;-65
2022/01/06 07:10:08;;;;;;;29.03;10.70;;;1.60;99.90;;;;;;5051572;28;20578;-65
2022/01/06 07:12:41;;;;;;;26.30;10.20;;;1.60;99.90;;;;;;5053061;28;20560;-65
2022/01/06 07:15:08;;;;;;;89.73;40.73;;;1.60;99.90;;;;;;5051927;28;20266;-65
2022/01/06 07:17:34;;;;;;;69.20;35.00;;;1.60;99.90;;;;;;5053069;28;20235;-65
2022/01/06 07:20:00;;;;;;;25.07;13.70;;;1.60;99.90;;;;;;5051564;28;20698;-65
2022/01/06 07:22:26;;;;;;;34.00;18.33;;;1.70;99.90;;;;;;5051535;28;20226;-65
2022/01/06 07:24:51;;;;;;;27.00;15.30;;;1.70;99.90;;;;;;5052863;28;20182;-65
2022/01/06 07:27:17;;;;;;;23.23;11.40;;;1.80;99.90;;;;;;5052817;28;20567;-65
2022/01/06 07:29:43;;;;;;;29.07;13.80;;;1.80;99.90;;;;;;5051595;28;20213;-64
2022/01/06 07:32:09;;;;;;;36.87;12.93;;;1.80;99.90;;;;;;5051607;28;20197;-65
2022/01/06 07:34:35;;;;;;;23.00;11.30;;;1.90;99.90;;;;;;5055100;28;20639;-64
2022/01/06 07:37:01;;;;;;;23.07;11.10;;;1.90;99.90;;;;;;5057075;28;20174;-65
2022/01/06 07:39:27;;;;;;;17.50;11.07;;;1.90;99.90;;;;;;5057224;28;20186;-65
2022/01/06 07:41:53;;;;;;;26.20;11.57;;;2.00;99.90;;;;;;5055695;28;20174;-65
2022/01/06 07:44:19;;;;;;;20.87;11.03;;;1.90;99.90;;;;;;5056710;28;20284;-65
2022/01/06 07:46:46;;;;;;;31.50;11.80;;;1.90;99.90;;;;;;5056637;28;20636;-65
2022/01/06 07:49:13;;;;;;;24.03;11.50;;;2.00;99.90;;;;;;5056761;28;20199;-65
2022/01/06 07:51:39;;;;;;;25.97;11.17;;;2.00;99.90;;;;;;5056744;28;20174;-65
2022/01/06 07:54:05;;;;;;;21.17;10.40;;;1.90;99.90;;;;;;5056457;28;20190;-65
2022/01/06 07:56:32;;;;;;;23.83;9.83;;;1.90;99.90;;;;;;5056486;28;20159;-66
2022/01/06 07:58:58;;;;;;;20.27;10.23;;;1.90;99.90;;;;;;5055144;28;20204;-65
2022/01/06 08:01:24;;;;;;;27.80;11.07;;;1.90;99.90;;;;;;5055046;28;20179;-65
2022/01/06 08:03:50;;;;;;;18.33;10.27;;;1.90;99.90;;;;;;5054985;28;20213;-65
2022/01/06 08:06:16;;;;;;;23.33;10.37;;;1.90;99.90;;;;;;5056190;28;20642;-65
2022/01/06 08:08:43;;;;;;;20.07;10.30;;;1.90;99.90;;;;;;5056076;28;20183;-65
2022/01/06 08:11:09;;;;;;;31.07;11.13;;;1.80;99.90;;;;;;5056442;28;20201;-65
2022/01/06 08:13:35;;;;;;;26.43;11.20;;;1.80;99.90;;;;;;5054725;28;20201;-65
2022/01/06 08:16:01;;;;;;;28.00;10.80;;;1.80;99.90;;;;;;5054833;28;20174;-65
2022/01/06 08:18:27;;;;;;;22.77;11.97;;;1.80;99.90;;;;;;5056321;28;20647;-65
2022/01/06 08:20:53;;;;;;;30.80;20.07;;;1.90;99.90;;;;;;5054635;28;20208;-65
2022/01/06 08:23:19;;;;;;;25.53;13.07;;;1.80;99.90;;;;;;5055753;28;20204;-65
2022/01/06 08:25:45;;;;;;;21.17;11.23;;;1.80;99.90;;;;;;5056114;28;20158;-66
2022/01/06 08:28:11;;;;;;;34.17;12.13;;;1.80;99.90;;;;;;5056071;28;20221;-65
2022/01/06 08:30:36;;;;;;;30.80;11.47;;;1.70;99.90;;;;;;5055717;28;20256;-66
2022/01/06 08:33:02;;;;;;;29.80;11.57;;;1.70;99.90;;;;;;5056238;28;20191;-66
2022/01/06 08:35:28;;;;;;;24.30;11.83;;;1.70;99.90;;;;;;5054527;28;20184;-66
2022/01/06 08:37:54;;;;;;;32.90;11.93;;;1.60;99.90;;;;;;5056380;28;20174;-66
2022/01/06 08:40:20;;;;;;;26.30;12.27;;;1.60;99.90;;;;;;5055788;28;20662;-66
2022/01/06 08:42:46;;;;;;;24.07;11.97;;;1.60;99.90;;;;;;5054593;28;20599;-65
2022/01/06 08:45:13;;;;;;;24.43;12.90;;;1.60;99.90;;;;;;5054675;28;20648;-65
2022/01/06 08:47:39;;;;;;;28.77;11.40;;;1.60;99.90;;;;;;5055453;28;20182;-65
2022/01/06 08:50:06;;;;;;;27.20;11.17;;;1.70;99.90;;;;;;5055584;28;20788;-65
2022/01/06 08:52:34;;;;;;;35.37;12.50;;;1.70;99.90;;;;;;5054229;28;20694;-65
2022/01/06 08:55:00;;;;;;;30.27;12.90;;;1.70;99.90;;;;;;5054309;28;20174;-65
2022/01/06 08:57:26;;;;;;;34.77;12.70;;;1.80;99.90;;;;;;5055489;28;20181;-65
2022/01/06 08:59:52;;;;;;;21.10;12.37;;;1.80;99.90;;;;;;5053956;28;20596;-65
2022/01/06 09:02:18;;;;;;;23.67;13.00;;;1.90;99.90;;;;;;5055373;28;20285;-66
2022/01/06 09:04:44;;;;;;;25.70;12.17;;;1.90;99.90;;;;;;5053898;28;20275;-66
2022/01/06 09:07:10;;;;;;;26.17;12.93;;;1.90;99.90;;;;;;5055190;28;20547;-66
2022/01/06 09:09:39;;;;;;;24.53;12.47;;;1.90;99.90;;;;;;5055326;28;20622;-66
2022/01/06 09:12:06;;;;;;;27.53;12.37;;;2.00;99.90;;;;;;5055498;28;20589;-66
2022/01/06 09:14:31;;;;;;;24.23;12.57;;;2.00;99.90;;;;;;5055256;28;20163;-65
2022/01/06 09:16:58;;;;;;;25.40;13.13;;;2.00;99.90;;;;;;5054826;28;20185;-66
2022/01/06 09:19:23;;;;;;;22.17;11.53;;;2.10;99.90;;;;;;5054777;28;20179;-66
2022/01/06 09:21:50;;;;;;;29.73;13.00;;;2.10;99.90;;;;;;5054857;28;20653;-66
2022/01/06 09:24:18;;;;;;;33.70;11.73;;;2.10;99.90;;;;;;5054609;28;20598;-65
2022/01/06 09:26:44;;;;;;;24.67;12.03;;;2.20;99.90;;;;;;5054578;28;20190;-65
2022/01/06 09:29:13;;;;;;;21.47;11.70;;;2.20;99.90;;;;;;5054818;28;20564;-65
2022/01/06 09:31:40;;;;;;;23.20;12.37;;;2.30;99.90;;;;;;5054635;28;20167;-65
2022/01/06 09:34:07;;;;;;;20.80;11.27;;;2.30;99.90;;;;;;5054558;28;20202;-65
2022/01/06 09:36:33;;;;;;;25.27;11.00;;;2.40;99.90;;;;;;5055043;28;20526;-65
2022/01/06 09:39:01;;;;;;;24.80;12.23;;;2.40;99.90;;;;;;5054400;28;20584;-65
2022/01/06 09:41:27;;;;;;;23.77;11.40;;;2.40;99.90;;;;;;5054331;28;20224;-65
2022/01/06 09:43:57;;;;;;;20.63;11.93;;;2.50;99.90;;;;;;5054398;28;20201;-65
2022/01/06 09:46:24;;;;;;;28.73;11.93;;;2.50;99.90;;;;;;5054319;28;20233;-65
2022/01/06 09:48:50;;;;;;;20.87;10.50;;;2.60;99.90;;;;;;5054140;28;20175;-65
2022/01/06 09:51:18;;;;;;;25.03;11.07;;;2.70;99.90;;;;;;5053060;28;20663;-65
2022/01/06 09:53:44;;;;;;;25.37;11.17;;;2.80;99.90;;;;;;5054561;28;20194;-65
2022/01/06 09:56:10;;;;;;;23.67;11.07;;;2.90;99.90;;;;;;5053266;28;20265;-67
2022/01/06 09:58:36;;;;;;;22.57;10.67;;;2.90;99.90;;;;;;5052885;28;20173;-66
2022/01/06 10:01:02;;;;;;;23.37;10.80;;;3.00;99.90;;;;;;5053042;28;20174;-64
2022/01/06 10:03:38;;;;;;;26.23;10.43;;;3.00;99.90;;;;;;5054429;28;20201;-67
2022/01/06 10:06:24;;;;;;;24.63;9.67;;;3.00;99.90;;;;;;5054112;28;20159;-67
2022/01/06 10:09:03;;;;;;;17.23;8.97;;;3.00;99.90;;;;;;5054573;28;20608;-68
2022/01/06 10:11:32;;;;;;;20.03;10.27;;;3.10;99.90;;;;;;5054315;28;20150;-68
2022/01/06 10:14:19;;;;;;;21.80;9.83;;;3.10;99.90;;;;;;5054031;28;20273;-68
2022/01/06 10:16:49;;;;;;;27.60;11.47;;;3.20;99.90;;;;;;5053983;28;20673;-68
2022/01/06 10:19:15;;;;;;;23.80;11.63;;;3.30;99.90;;;;;;5052770;28;20174;-68
2022/01/06 10:21:47;;;;;;;16.57;9.60;;;3.40;99.90;;;;;;5054143;28;20182;-68
2022/01/06 10:24:22;;;;;;;22.40;10.13;;;3.50;99.90;;;;;;5053849;28;20210;-67
2022/01/06 10:27:04;;;;;;;23.73;10.60;;;3.60;99.90;;;;;;5053509;28;20238;-68
2022/01/06 10:29:33;;;;;;;21.80;10.00;;;3.70;99.90;;;;;;5054326;28;20194;-68
2022/01/06 10:32:04;;;;;;;28.33;9.80;;;3.80;99.90;;;;;;5052554;28;20579;-67
2022/01/06 10:34:34;;;;;;;13.77;9.03;;;3.80;99.90;;;;;;5053634;28;20171;-66
2022/01/06 10:37:01;;;;;;;20.77;9.97;;;4.00;99.90;;;;;;5053905;28;20162;-66
2022/01/06 10:39:40;;;;;;;19.73;9.97;;;4.10;99.90;;;;;;5053769;28;20698;-72
2022/01/06 10:42:06;;;;;;;23.20;10.30;;;4.20;99.90;;;;;;5053443;28;20173;-67
2022/01/06 10:44:32;;;;;;;22.07;10.53;;;4.20;99.90;;;;;;5052345;28;20235;-73
2022/01/06 10:46:58;;;;;;;18.50;11.57;;;4.30;99.90;;;;;;5052226;28;20724;-67
2022/01/06 10:49:24;;;;;;;20.70;10.10;;;4.30;99.90;;;;;;5053449;28;20277;-66
2022/01/06 10:51:50;;;;;;;21.33;10.77;;;4.20;99.90;;;;;;5053475;28;20198;-66
2022/01/06 10:54:22;;;;;;;20.20;10.77;;;4.30;99.90;;;;;;5053242;28;20685;-67
2022/01/06 10:57:01;;;;;;;22.97;10.47;;;4.40;99.90;;;;;;5052286;28;20208;-66
2022/01/06 10:59:33;;;;;;;24.73;11.07;;;4.50;99.90;;;;;;5052331;28;20200;-67
2022/01/06 11:02:00;;;;;;;21.53;11.13;;;4.70;99.90;;;;;;5053660;28;20166;-66
2022/01/06 11:04:26;;;;;;;16.50;11.73;;;4.70;99.90;;;;;;5053750;28;20195;-66
2022/01/06 11:06:53;;;;;;;22.70;12.40;;;4.90;99.90;;;;;;5053426;28;20171;-67
2022/01/06 11:09:19;;;;;;;27.87;12.37;;;5.10;99.90;;;;;;5055146;28;20248;-67
2022/01/06 11:14:28;;;;;;;24.50;12.17;;;5.10;99.90;;;;;;5057827;28;20200;-66
2022/01/06 11:16:54;;;;;;;26.80;11.97;;;5.20;99.90;;;;;;5057502;28;20170;-67
2022/01/06 11:19:26;;;;;;;20.40;11.43;;;5.30;99.90;;;;;;5057649;28;20268;-67
2022/01/06 11:21:56;;;;;;;17.07;11.53;;;5.50;99.90;;;;;;5057270;28;20652;-67
2022/01/06 11:24:24;;;;;;;23.17;11.13;;;5.80;99.90;;;;;;5057056;28;20645;-66
2022/01/06 11:27:02;;;;;;;19.80;11.33;;;5.90;99.90;;;;;;5057138;28;20253;-67
2022/01/06 11:29:30;;;;;;;26.97;12.30;;;5.90;99.90;;;;;;5056989;28;20236;-66
2022/01/06 11:31:56;;;;;;;26.37;11.50;;;5.80;99.90;;;;;;5056899;28;20175;-66
2022/01/06 11:34:22;;;;;;;26.53;11.63;;;5.70;99.90;;;;;;5056853;28;20278;-67
2022/01/06 11:36:50;;;;;;;25.23;12.13;;;5.90;99.90;;;;;;5057112;28;20185;-67
2022/01/06 11:39:26;;;;;;;33.37;12.90;;;6.10;99.90;;;;;;5057008;28;20170;-66
2022/01/06 11:41:53;;;;;;;26.77;13.33;;;6.10;99.90;;;;;;5055711;28;20601;-66
2022/01/06 11:44:25;;;;;;;25.53;12.70;;;6.20;99.90;;;;;;5056717;28;20186;-66
2022/01/06 11:46:56;;;;;;;29.00;12.27;;;6.20;99.90;;;;;;5057073;28;20158;-66
2022/01/06 11:49:42;;;;;;;25.70;13.13;;;6.10;99.90;;;;;;5056817;28;20198;-66
2022/01/06 11:52:16;;;;;;;29.47;12.40;;;6.10;99.90;;;;;;5056479;28;20523;-66
2022/01/06 11:54:56;;;;;;;24.27;12.73;;;6.10;99.90;;;;;;5056817;28;20518;-66
2022/01/06 11:57:35;;;;;;;27.03;12.50;;;6.10;99.90;;;;;;5056797;28;20209;-67
2022/01/06 12:00:16;;;;;;;23.53;13.83;;;6.00;99.90;;;;;;5056480;28;20706;-66
2022/01/06 12:02:43;;;;;;;19.97;12.00;;;6.10;99.90;;;;;;5056653;28;20682;-67
2022/01/06 12:05:09;;;;;;;26.37;12.33;;;6.10;99.90;;;;;;5056392;28;20542;-67
2022/01/06 12:07:35;;;;;;;30.90;13.83;;;6.10;99.90;;;;;;5056905;28;20175;-67
2022/01/06 12:10:08;;;;;;;27.93;13.20;;;6.00;99.90;;;;;;5056550;28;20195;-67
2022/01/06 12:12:39;;;;;;;24.60;13.10;;;6.00;99.90;;;;;;5056811;28;20193;-67
2022/01/06 12:15:07;;;;;;;26.00;12.80;;;6.10;99.90;;;;;;5056873;28;20245;-67
2022/01/06 12:17:34;;;;;;;25.07;12.60;;;6.00;99.90;;;;;;5056648;28;20175;-67
2022/01/06 12:20:03;;;;;;;36.10;14.73;;;6.00;99.90;;;;;;5056698;28;20238;-67
2022/01/06 12:22:28;;;;;;;27.43;14.17;;;5.70;99.90;;;;;;5056582;28;20202;-67
2022/01/06 12:25:05;;;;;;;33.73;14.07;;;5.50;99.90;;;;;;5056698;28;20637;-67
2022/01/06 12:27:32;;;;;;;33.43;14.73;;;5.50;99.90;;;;;;5054850;28;20248;-68
2022/01/06 12:29:58;;;;;;;27.37;14.03;;;5.70;99.90;;;;;;5054909;28;20210;-68
2022/01/06 12:32:23;;;;;;;28.03;13.37;;;5.70;99.90;;;;;;5056280;28;20150;-68
2022/01/06 12:34:56;;;;;;;30.20;14.63;;;5.70;99.90;;;;;;5054656;28;20523;-68
2022/01/06 12:37:29;;;;;;;32.80;14.83;;;5.60;99.90;;;;;;5054422;28;20251;-67
2022/01/06 12:39:56;;;;;;;21.17;12.63;;;5.40;99.90;;;;;;5055818;28;20578;-67
2022/01/06 12:42:22;;;;;;;29.40;13.83;;;5.40;99.90;;;;;;5055948;28;20224;-68
2022/01/06 12:44:48;;;;;;;31.13;15.47;;;5.30;99.90;;;;;;5056073;28;20178;-68
2022/01/06 12:47:15;;;;;;;29.57;14.53;;;5.40;99.90;;;;;;5055835;28;20173;-67
2022/01/06 12:49:40;;;;;;;28.83;15.07;;;5.40;99.90;;;;;;5055718;28;20229;-68
2022/01/06 12:52:07;;;;;;;28.37;13.93;;;5.40;99.90;;;;;;5055437;28;20198;-68
2022/01/06 12:54:41;;;;;;;28.43;14.83;;;5.20;99.90;;;;;;5055872;28;20170;-67